CheckWX is a tool to help pilots better visualize weather data.  It is not intended as a substitute for an official pre-flight weather briefing.

20:26:04 UTC

CYMT TAF
Chapais Airport
Chibougamau, Canada
TAF CYMT 291738Z 2918/3001 31006KT P6SM FEW015 RMK FCST BASED ON AUTO OBS. NXT FCST WILL BE ISSUED AT 301245Z

Jan-29@
18:00 UTC

Jan-29 @ 18:00 UTC

Jan-30@
01:00 UTC

Jan-30 @ 01:00 UTC

TAF CYMT 291738Z 2918/3001 31006KT P6SM FEW015 RMK FCST BASED ON AUTO OBS. NXT FCST WILL BE ISSUED AT 301245Z
Wind
  • 310° at 6 KTS
Cloud Levels
  • Few at 1,500' AGL